createdAt,value
2017-10-20T00:00:44.865Z,76.62
2017-10-20T00:01:44.790Z,76.71
2017-10-20T00:02:44.706Z,77.09
2017-10-20T00:03:44.632Z,76.32
2017-10-20T00:04:44.548Z,75.95
2017-10-20T00:05:44.469Z,76.04
2017-10-20T00:06:44.384Z,75.85
2017-10-20T00:07:44.309Z,76.04
2017-10-20T00:08:44.239Z,75.37
2017-10-20T00:09:44.147Z,75.27
2017-10-20T00:10:44.068Z,75.46
2017-10-20T00:11:43.987Z,74.79
2017-10-20T00:12:43.904Z,75.18
2017-10-20T00:13:43.832Z,74.89
2017-10-20T00:14:43.739Z,74.79
2017-10-20T00:15:43.672Z,74.60
2017-10-20T00:16:43.608Z,75.46
2017-10-20T00:17:43.498Z,75.65
2017-10-20T00:18:43.424Z,75.18
2017-10-20T00:19:43.340Z,74.79
2017-10-20T00:20:43.262Z,74.60
2017-10-20T00:21:43.184Z,74.89
2017-10-20T00:22:43.105Z,74.69
2017-10-20T00:23:43.032Z,74.95
2017-10-20T00:24:42.939Z,75.08
2017-10-20T00:25:42.868Z,74.89
2017-10-20T00:26:42.776Z,74.98
2017-10-20T00:27:42.699Z,74.69
2017-10-20T00:28:42.627Z,74.60
2017-10-20T00:29:42.547Z,74.41
2017-10-20T00:30:42.457Z,74.31
2017-10-20T00:31:42.376Z,74.12
2017-10-20T00:32:42.301Z,73.55
2017-10-20T00:33:42.215Z,73.74
2017-10-20T00:34:42.142Z,73.83
2017-10-20T00:35:42.052Z,74.41
2017-10-20T00:36:41.978Z,73.93
2017-10-20T00:37:41.895Z,73.16
2017-10-20T00:38:41.815Z,73.35
2017-10-20T00:39:41.747Z,73.83
2017-10-20T00:40:41.655Z,73.07
2017-10-20T00:41:41.575Z,72.97
2017-10-20T00:42:41.506Z,72.78
2017-10-20T00:43:41.408Z,72.78
2017-10-20T00:44:41.335Z,72.88
2017-10-20T00:45:41.260Z,72.59
2017-10-20T00:46:41.174Z,72.49
2017-10-20T00:47:41.107Z,72.39
2017-10-20T00:48:41.016Z,72.39
2017-10-20T00:49:40.936Z,72.11
2017-10-20T00:50:40.857Z,72.30
2017-10-20T00:51:40.777Z,71.82
2017-10-20T00:52:40.691Z,72.01
2017-10-20T00:53:40.613Z,72.01
2017-10-20T00:54:40.531Z,71.72
2017-10-20T00:55:40.464Z,72.49
2017-10-20T00:56:40.380Z,72.01
2017-10-20T00:57:40.293Z,72.01
2017-10-20T00:58:40.211Z,72.39
2017-10-20T00:59:40.176Z,72.39
2017-10-20T01:00:40.059Z,72.59
2017-10-20T01:01:39.973Z,72.78
2017-10-20T01:02:39.893Z,72.49
2017-10-20T01:03:39.817Z,72.11
2017-10-20T01:04:39.735Z,72.20
2017-10-20T01:05:39.670Z,72.20
2017-10-20T01:06:39.586Z,72.20
2017-10-20T01:07:39.489Z,72.11
2017-10-20T01:08:39.420Z,72.78
2017-10-20T01:09:39.342Z,72.49
2017-10-20T01:10:39.254Z,72.59
2017-10-20T01:11:39.166Z,72.49
2017-10-20T01:12:39.096Z,72.97
2017-10-20T01:13:39.011Z,72.68
2017-10-20T01:14:38.924Z,73.16
2017-10-20T01:15:38.846Z,72.20
2017-10-20T01:16:38.765Z,72.20
2017-10-20T01:17:38.687Z,72.68
2017-10-20T01:18:38.607Z,73.35
2017-10-20T01:19:38.569Z,72.78
2017-10-20T01:20:38.454Z,73.65
2017-10-20T01:21:38.371Z,73.51
2017-10-20T01:22:38.280Z,73.26
2017-10-20T01:23:38.210Z,73.80
2017-10-20T01:24:38.124Z,73.41
2017-10-20T01:25:38.066Z,73.65
2017-10-20T01:26:37.964Z,73.32
2017-10-20T01:27:37.884Z,73.32
2017-10-20T01:28:37.806Z,73.61
2017-10-20T01:29:37.731Z,73.80
2017-10-20T01:30:37.642Z,74.08
2017-10-20T01:31:37.560Z,73.90
2017-10-20T01:32:37.495Z,73.35
2017-10-20T01:33:37.395Z,73.45
2017-10-20T01:34:37.319Z,73.07
2017-10-20T01:35:37.248Z,73.65
2017-10-20T01:36:37.164Z,73.45
2017-10-20T01:37:37.078Z,73.45
2017-10-20T01:38:37.005Z,73.83
2017-10-20T01:39:36.926Z,73.65
2017-10-20T01:40:36.843Z,74.08
2017-10-20T01:41:36.763Z,73.55
2017-10-20T01:42:36.682Z,74.02
2017-10-20T01:43:36.594Z,73.83
2017-10-20T01:44:36.514Z,73.41
2017-10-20T01:45:36.433Z,74.85
2017-10-20T01:46:36.352Z,74.85
2017-10-20T01:47:36.270Z,74.47
2017-10-20T01:48:36.197Z,74.66
2017-10-20T01:49:36.107Z,74.76
2017-10-20T01:50:36.025Z,75.33
2017-10-20T01:51:35.948Z,75.62
2017-10-20T01:52:35.862Z,75.62
2017-10-20T01:53:35.795Z,75.29
2017-10-20T01:54:35.700Z,75.87
2017-10-20T01:55:35.620Z,75.62
2017-10-20T01:56:35.541Z,75.62
2017-10-20T01:57:35.460Z,74.95
2017-10-20T01:58:35.382Z,74.66
2017-10-20T01:59:35.293Z,74.95
2017-10-20T02:00:35.219Z,75.14
2017-10-20T02:01:35.141Z,74.37
2017-10-20T02:02:35.048Z,75.14
2017-10-20T02:03:34.972Z,75.33
2017-10-20T02:04:34.895Z,75.04
2017-10-20T02:05:34.811Z,74.95
2017-10-20T02:06:34.727Z,75.33
2017-10-20T02:07:34.653Z,75.71
2017-10-20T02:08:34.596Z,75.33
2017-10-20T02:09:34.488Z,74.47
2017-10-20T02:10:34.403Z,73.99
2017-10-20T02:11:34.326Z,74.08
2017-10-20T02:12:34.244Z,73.90
2017-10-20T02:13:34.165Z,73.80
2017-10-20T02:14:34.082Z,73.41
2017-10-20T02:15:34.007Z,73.32
2017-10-20T02:16:33.921Z,73.41
2017-10-20T02:17:33.844Z,73.61
2017-10-20T02:18:33.758Z,74.18
2017-10-20T02:19:33.688Z,73.70
2017-10-20T02:20:33.603Z,73.51
2017-10-20T02:21:33.523Z,73.61
2017-10-20T02:22:33.437Z,73.90
2017-10-20T02:23:33.359Z,73.99
2017-10-20T02:24:33.281Z,73.90
2017-10-20T02:25:33.199Z,74.08
2017-10-20T02:26:33.126Z,73.32
2017-10-20T02:27:33.036Z,73.61
2017-10-20T02:28:32.959Z,74.08
2017-10-20T02:29:32.878Z,74.27
2017-10-20T02:30:32.792Z,75.04
2017-10-20T02:31:32.710Z,74.57
2017-10-20T02:32:32.632Z,74.08
2017-10-20T02:33:32.557Z,73.80
2017-10-20T02:34:32.485Z,73.99
2017-10-20T02:35:32.394Z,74.33
2017-10-20T02:36:32.308Z,74.08
2017-10-20T02:37:32.239Z,73.99
2017-10-20T02:38:32.146Z,73.99
2017-10-20T02:39:32.065Z,73.90
2017-10-20T02:40:31.990Z,73.99
2017-10-20T02:41:31.908Z,74.18
2017-10-20T02:42:31.847Z,74.27
2017-10-20T02:43:31.741Z,73.99
2017-10-20T02:44:31.657Z,74.24
2017-10-20T02:45:31.584Z,75.16
2017-10-20T02:46:31.500Z,75.83
2017-10-20T02:47:31.424Z,76.50
2017-10-20T02:48:31.338Z,75.83
2017-10-20T02:49:31.266Z,76.12
2017-10-20T02:50:31.188Z,75.96
2017-10-20T02:51:31.108Z,75.39
2017-10-20T02:52:31.014Z,74.76
2017-10-20T02:53:30.932Z,75.04
2017-10-20T02:54:31.096Z,74.37
2017-10-20T02:55:30.774Z,74.18
2017-10-20T02:56:30.700Z,73.90
2017-10-20T02:57:30.616Z,74.08
2017-10-20T02:58:30.529Z,73.99
2017-10-20T02:59:30.447Z,73.90
2017-10-20T03:00:30.369Z,74.76
2017-10-20T03:01:30.289Z,74.37
2017-10-20T03:02:30.211Z,74.18
2017-10-20T03:03:30.137Z,74.47
2017-10-20T03:04:30.044Z,74.37
2017-10-20T03:05:29.961Z,74.95
2017-10-20T03:06:29.891Z,74.85
2017-10-20T03:07:29.805Z,74.85
2017-10-20T03:08:29.740Z,75.23
2017-10-20T03:09:29.646Z,74.95
2017-10-20T03:10:29.555Z,74.76
2017-10-20T03:11:29.484Z,74.76
2017-10-20T03:12:29.400Z,75.81
2017-10-20T03:13:29.315Z,75.14
2017-10-20T03:14:29.234Z,75.52
2017-10-20T03:15:29.160Z,75.52
2017-10-20T03:16:29.075Z,75.52
2017-10-20T03:17:28.993Z,75.14
2017-10-20T03:18:28.912Z,75.43
2017-10-20T03:19:28.832Z,75.52
2017-10-20T03:20:28.752Z,75.33
2017-10-20T03:21:28.669Z,75.14
2017-10-20T03:22:28.590Z,75.33
2017-10-20T03:23:28.522Z,75.39
2017-10-20T03:24:28.438Z,75.96
2017-10-20T03:25:28.346Z,76.06
2017-10-20T03:26:28.268Z,75.29
2017-10-20T03:27:28.183Z,75.20
2017-10-20T03:28:28.102Z,76.12
2017-10-20T03:29:28.024Z,76.21
2017-10-20T03:30:27.945Z,75.96
2017-10-20T03:31:27.867Z,75.77
2017-10-20T03:32:27.777Z,75.83
2017-10-20T03:33:27.694Z,76.40
2017-10-20T03:34:27.644Z,76.60
2017-10-20T03:35:27.535Z,76.44
2017-10-20T03:36:27.455Z,76.69
2017-10-20T03:37:27.373Z,75.93
2017-10-20T03:38:27.298Z,75.87
2017-10-20T03:39:27.215Z,75.58
2017-10-20T03:40:27.131Z,75.87
2017-10-20T03:41:27.052Z,75.29
2017-10-20T03:42:26.968Z,75.33
2017-10-20T03:43:26.890Z,75.52
2017-10-20T03:44:26.804Z,75.14
2017-10-20T03:45:26.733Z,75.14
2017-10-20T03:46:26.643Z,75.68
2017-10-20T03:47:26.609Z,75.68
2017-10-20T03:48:26.500Z,75.20
2017-10-20T03:49:26.421Z,75.29
2017-10-20T03:50:26.321Z,75.29
2017-10-20T03:51:26.240Z,75.10
2017-10-20T03:52:26.163Z,75.96
2017-10-20T03:53:26.080Z,76.15
2017-10-20T03:54:26.016Z,76.35
2017-10-20T03:55:25.918Z,76.15
2017-10-20T03:56:25.843Z,75.96
2017-10-20T03:57:25.755Z,75.68
2017-10-20T03:58:25.679Z,75.58
2017-10-20T03:59:25.600Z,75.48
2017-10-20T04:00:25.509Z,74.91
2017-10-20T04:01:25.437Z,74.82
2017-10-20T04:02:25.368Z,75.01
2017-10-20T04:03:25.274Z,74.52
2017-10-20T04:04:25.186Z,74.82
2017-10-20T04:05:25.110Z,75.10
2017-10-20T04:06:25.047Z,75.39
2017-10-20T04:07:24.952Z,75.29
2017-10-20T04:08:24.863Z,74.82
2017-10-20T04:09:24.819Z,74.91
2017-10-20T04:10:24.711Z,74.05
2017-10-20T04:11:24.623Z,74.43
2017-10-20T04:12:24.542Z,75.01
2017-10-20T04:13:24.481Z,75.01
2017-10-20T04:14:24.381Z,75.20
2017-10-20T04:15:24.308Z,75.10
2017-10-20T04:16:24.220Z,75.10
2017-10-20T04:17:24.140Z,74.76
2017-10-20T04:18:24.059Z,75.04
2017-10-20T04:19:23.990Z,75.33
2017-10-20T04:20:23.900Z,75.43
2017-10-20T04:21:23.818Z,75.20
2017-10-20T04:22:23.748Z,75.77
2017-10-20T04:23:23.658Z,76.06
2017-10-20T04:24:23.577Z,76.35
2017-10-20T04:25:23.497Z,75.58
2017-10-20T04:26:23.426Z,75.77
2017-10-20T04:27:23.337Z,76.92
2017-10-20T04:28:23.251Z,76.15
2017-10-20T04:29:23.202Z,76.06
2017-10-20T04:30:23.105Z,75.20
2017-10-20T04:31:23.013Z,75.48
2017-10-20T04:32:22.925Z,75.48
2017-10-20T04:33:22.849Z,75.87
2017-10-20T04:34:22.767Z,75.96
2017-10-20T04:35:22.693Z,76.06
2017-10-20T04:36:22.611Z,76.25
2017-10-20T04:37:22.535Z,75.77
2017-10-20T04:38:22.449Z,76.44
2017-10-20T04:39:22.365Z,76.35
2017-10-20T04:40:22.288Z,76.44
2017-10-20T04:41:22.211Z,76.54
2017-10-20T04:42:22.119Z,76.25
2017-10-20T04:43:22.038Z,76.15
2017-10-20T04:44:21.961Z,76.44
2017-10-20T04:45:21.880Z,76.00
2017-10-20T04:46:21.796Z,76.06
2017-10-20T04:47:21.718Z,76.64
2017-10-20T04:48:21.638Z,76.25
2017-10-20T04:49:21.568Z,76.92
2017-10-20T04:50:21.484Z,76.86
2017-10-20T04:51:21.402Z,76.54
2017-10-20T04:52:21.316Z,76.54
2017-10-20T04:53:21.229Z,76.54
2017-10-20T04:54:21.157Z,76.06
2017-10-20T04:55:21.073Z,76.57
2017-10-20T04:56:20.995Z,76.44
2017-10-20T04:57:20.916Z,77.11
2017-10-20T04:58:20.833Z,76.64
2017-10-20T04:59:20.747Z,77.11
2017-10-20T05:00:20.669Z,76.73
2017-10-20T05:01:20.589Z,76.54
2017-10-20T05:02:20.520Z,76.54
2017-10-20T05:03:20.426Z,77.11
2017-10-20T05:04:20.345Z,77.50
2017-10-20T05:05:20.266Z,77.50
2017-10-20T05:06:20.181Z,77.50
2017-10-20T05:07:20.110Z,77.59
2017-10-20T05:08:20.025Z,77.50
2017-10-20T05:09:19.942Z,77.50
2017-10-20T05:10:19.869Z,77.31
2017-10-20T05:11:19.784Z,77.40
2017-10-20T05:12:19.702Z,77.50
2017-10-20T05:13:19.640Z,77.31
2017-10-20T05:14:19.541Z,77.02
2017-10-20T05:15:19.453Z,76.54
2017-10-20T05:16:19.371Z,76.64
2017-10-20T05:17:19.302Z,74.91
2017-10-20T05:18:19.208Z,75.58
2017-10-20T05:19:19.150Z,75.96
2017-10-20T05:20:19.049Z,76.06
2017-10-20T05:21:18.975Z,75.58
2017-10-20T05:22:18.893Z,75.87
2017-10-20T05:23:18.816Z,75.96
2017-10-20T05:24:18.733Z,75.96
2017-10-20T05:25:18.671Z,75.68
2017-10-20T05:26:18.575Z,75.96
2017-10-20T05:27:18.489Z,75.01
2017-10-20T05:28:18.406Z,75.68
2017-10-20T05:29:18.320Z,75.58
2017-10-20T05:30:18.260Z,75.58
2017-10-20T05:31:18.162Z,75.77
2017-10-20T05:32:18.082Z,75.68
2017-10-20T05:33:18.023Z,75.96
2017-10-20T05:34:17.919Z,76.35
2017-10-20T05:35:17.842Z,76.64
2017-10-20T05:36:17.773Z,76.35
2017-10-20T05:37:17.690Z,76.06
2017-10-20T05:38:17.596Z,76.73
2017-10-20T05:39:17.534Z,76.92
2017-10-20T05:40:17.439Z,76.44
2017-10-20T05:41:17.358Z,76.44
2017-10-20T05:42:17.276Z,75.39
2017-10-20T05:43:17.199Z,75.93
2017-10-20T05:44:17.117Z,75.96
2017-10-20T05:45:17.038Z,75.58
2017-10-20T05:46:16.947Z,75.20
2017-10-20T05:47:16.899Z,75.29
2017-10-20T05:48:16.793Z,75.48
2017-10-20T05:49:16.711Z,75.29
2017-10-20T05:50:16.662Z,76.02
2017-10-20T05:51:16.553Z,76.50
2017-10-20T05:52:16.463Z,76.82
2017-10-20T05:53:16.388Z,76.82
2017-10-20T05:54:16.315Z,76.92
2017-10-20T05:55:16.222Z,76.82
2017-10-20T05:56:16.145Z,76.64
2017-10-20T05:57:16.113Z,76.92
2017-10-20T05:58:15.987Z,76.44
2017-10-20T05:59:15.897Z,75.77
2017-10-20T06:00:15.823Z,75.48
2017-10-20T06:01:15.753Z,75.29
2017-10-20T06:02:15.659Z,75.20
2017-10-20T06:03:15.591Z,75.87
2017-10-20T06:04:15.509Z,76.06
2017-10-20T06:05:15.434Z,75.96
2017-10-20T06:06:15.337Z,76.25
2017-10-20T06:07:15.249Z,76.54
2017-10-20T06:08:15.175Z,76.54
2017-10-20T06:09:15.090Z,75.77
2017-10-20T06:10:15.004Z,75.96
2017-10-20T06:11:14.923Z,75.87
2017-10-20T06:12:14.843Z,76.92
2017-10-20T06:13:14.771Z,76.73
2017-10-20T06:14:14.692Z,76.15
2017-10-20T06:15:14.638Z,76.15
2017-10-20T06:16:14.524Z,76.25
2017-10-20T06:17:14.436Z,76.64
2017-10-20T06:18:14.413Z,76.25
2017-10-20T06:19:14.282Z,76.64
2017-10-20T06:20:14.203Z,75.87
2017-10-20T06:21:14.118Z,76.25
2017-10-20T06:22:14.034Z,76.35
2017-10-20T06:23:13.961Z,76.92
2017-10-20T06:24:13.877Z,76.73
2017-10-20T06:25:13.805Z,76.54
2017-10-20T06:26:13.736Z,75.96
2017-10-20T06:27:13.630Z,76.54
2017-10-20T06:28:13.553Z,76.73
2017-10-20T06:29:13.468Z,76.73
2017-10-20T06:30:13.395Z,77.11
2017-10-20T06:31:13.324Z,76.44
2017-10-20T06:32:13.236Z,76.73
2017-10-20T06:33:13.154Z,76.54
2017-10-20T06:34:13.063Z,76.73
2017-10-20T06:35:13.611Z,75.90
2017-10-20T06:36:12.950Z,76.82
2017-10-20T06:37:12.826Z,76.73
2017-10-20T06:38:12.752Z,76.44
2017-10-20T06:39:12.684Z,76.54
2017-10-20T06:40:12.581Z,76.57
2017-10-20T06:41:12.500Z,77.11
2017-10-20T06:42:12.434Z,75.96
2017-10-20T06:43:12.338Z,75.96
2017-10-20T06:44:12.262Z,76.15
2017-10-20T06:45:12.180Z,75.96
2017-10-20T06:46:12.098Z,76.15
2017-10-20T06:47:12.018Z,76.44
2017-10-20T06:48:11.933Z,76.06
2017-10-20T06:49:11.853Z,75.87
2017-10-20T06:50:11.774Z,76.44
2017-10-20T06:51:11.694Z,76.44
2017-10-20T06:52:11.612Z,76.25
2017-10-20T06:53:11.541Z,76.35
2017-10-20T06:54:11.453Z,75.96
2017-10-20T06:55:11.396Z,75.87
2017-10-20T06:56:11.289Z,76.44
2017-10-20T06:57:11.222Z,76.29
2017-10-20T06:58:11.128Z,76.25
2017-10-20T06:59:11.079Z,76.29
2017-10-20T07:00:10.965Z,76.10
2017-10-20T07:01:10.884Z,75.90
2017-10-20T07:02:10.799Z,76.10
2017-10-20T07:03:10.722Z,76.57
2017-10-20T07:04:10.639Z,76.29
2017-10-20T07:05:10.565Z,76.19
2017-10-20T07:06:10.494Z,76.25
2017-10-20T07:07:10.426Z,76.82
2017-10-20T07:08:10.325Z,76.73
2017-10-20T07:09:10.247Z,76.92
2017-10-20T07:10:10.156Z,76.77
2017-10-20T07:11:10.089Z,76.73
2017-10-20T07:12:10.002Z,76.44
2017-10-20T07:13:09.914Z,76.64
2017-10-20T07:14:09.844Z,77.15
2017-10-20T07:15:09.760Z,77.11
2017-10-20T07:16:09.670Z,77.15
2017-10-20T07:17:09.605Z,76.77
2017-10-20T07:18:09.515Z,76.44
2017-10-20T07:19:09.439Z,77.21
2017-10-20T07:20:09.357Z,76.73
2017-10-20T07:21:09.270Z,77.11
2017-10-20T07:22:09.192Z,77.50
2017-10-20T07:23:09.108Z,77.21
2017-10-20T07:24:09.025Z,76.86
2017-10-20T07:25:08.954Z,77.25
2017-10-20T07:26:08.869Z,76.44
2017-10-20T07:27:08.779Z,76.73
2017-10-20T07:28:08.706Z,76.25
2017-10-20T07:29:08.624Z,75.96
2017-10-20T07:30:08.542Z,76.15
2017-10-20T07:31:08.460Z,76.92
2017-10-20T07:32:08.380Z,76.44
2017-10-20T07:33:08.304Z,76.48
2017-10-20T07:34:08.245Z,77.06
2017-10-20T07:35:08.146Z,77.25
2017-10-20T07:36:08.057Z,76.77
2017-10-20T07:37:07.977Z,76.19
2017-10-20T07:38:07.897Z,75.90
2017-10-20T07:39:07.815Z,76.67
2017-10-20T07:40:07.739Z,76.39
2017-10-20T07:41:07.660Z,76.77
2017-10-20T07:42:07.580Z,77.34
2017-10-20T07:43:07.501Z,77.44
2017-10-20T07:44:07.423Z,77.63
2017-10-20T07:45:07.334Z,77.53
2017-10-20T07:46:07.254Z,77.44
2017-10-20T07:47:07.178Z,77.53
2017-10-20T07:48:07.095Z,77.63
2017-10-20T07:49:07.021Z,77.53
2017-10-20T07:50:06.927Z,77.73
2017-10-20T07:51:06.846Z,77.34
2017-10-20T07:52:06.778Z,77.44
2017-10-20T07:53:06.684Z,77.25
2017-10-20T07:54:06.620Z,77.44
2017-10-20T07:55:06.530Z,77.25
2017-10-20T07:56:06.452Z,76.77
2017-10-20T07:57:06.364Z,77.25
2017-10-20T07:58:06.301Z,77.15
2017-10-20T07:59:06.207Z,77.53
2017-10-20T08:00:06.125Z,77.34
2017-10-20T08:01:06.059Z,77.63
2017-10-20T08:02:05.963Z,77.06
2017-10-20T08:03:05.887Z,77.25
2017-10-20T08:04:05.798Z,77.29
2017-10-20T08:05:05.718Z,76.86
2017-10-20T08:06:05.654Z,76.86
2017-10-20T08:07:05.566Z,76.77
2017-10-20T08:08:05.488Z,77.06
2017-10-20T08:09:05.416Z,76.67
2017-10-20T08:10:05.323Z,76.67
2017-10-20T08:11:05.274Z,76.67
2017-10-20T08:12:05.167Z,76.57
2017-10-20T08:13:05.085Z,76.77
2017-10-20T08:14:05.007Z,76.57
2017-10-20T08:15:04.940Z,76.42
2017-10-20T08:16:04.844Z,76.32
2017-10-20T08:17:04.757Z,75.75
2017-10-20T08:18:04.719Z,75.95
2017-10-20T08:19:04.626Z,75.85
2017-10-20T08:20:04.527Z,76.14
2017-10-20T08:21:04.442Z,74.98
2017-10-20T08:22:04.363Z,75.08
2017-10-20T08:23:04.287Z,74.89
2017-10-20T08:24:04.213Z,74.69
2017-10-20T08:25:04.127Z,74.22
2017-10-20T08:26:04.044Z,73.93
2017-10-20T08:27:03.962Z,72.97
2017-10-20T08:28:03.884Z,73.35
2017-10-20T08:29:03.804Z,73.99
2017-10-20T08:30:03.732Z,73.93
2017-10-20T08:31:03.657Z,73.65
2017-10-20T08:32:03.576Z,72.88
2017-10-20T08:33:03.490Z,72.01
2017-10-20T08:34:03.407Z,71.92
2017-10-20T08:35:03.336Z,72.20
2017-10-20T08:36:03.307Z,70.86
2017-10-20T08:37:03.180Z,71.44
2017-10-20T08:38:03.088Z,71.57
2017-10-20T08:39:03.017Z,70.51
2017-10-20T08:40:02.928Z,70.70
2017-10-20T08:41:02.864Z,70.61
2017-10-20T08:42:02.783Z,70.80
2017-10-20T08:43:02.703Z,71.09
2017-10-20T08:44:02.613Z,70.99
2017-10-20T08:45:02.539Z,70.42
2017-10-20T08:46:02.451Z,70.51
2017-10-20T08:47:02.376Z,69.90
2017-10-20T08:48:02.295Z,70.42
2017-10-20T08:49:02.212Z,71.34
2017-10-20T08:50:02.139Z,70.90
2017-10-20T08:51:02.060Z,70.96
2017-10-20T08:52:01.995Z,71.09
2017-10-20T08:53:01.891Z,70.23
2017-10-20T08:54:01.821Z,69.65
2017-10-20T08:55:01.734Z,69.26
2017-10-20T08:56:01.693Z,69.07
2017-10-20T08:57:01.584Z,68.98
2017-10-20T08:58:01.495Z,69.01
2017-10-20T08:59:01.431Z,68.12
2017-10-20T09:00:01.343Z,68.59
2017-10-20T09:01:01.263Z,68.63
2017-10-20T09:02:01.179Z,68.53
2017-10-20T09:03:01.103Z,68.53
2017-10-20T09:04:01.023Z,68.05
2017-10-20T09:05:00.945Z,66.49
2017-10-20T09:06:00.858Z,67.73
2017-10-20T09:07:00.787Z,66.55
2017-10-20T09:08:00.703Z,66.16
2017-10-20T09:09:00.627Z,64.95
2017-10-20T09:10:00.560Z,64.47
2017-10-20T09:11:00.464Z,63.54
2017-10-20T09:12:00.421Z,64.22
2017-10-20T09:13:00.317Z,63.54
2017-10-20T09:14:00.240Z,63.22
2017-10-20T09:15:00.169Z,64.37
2017-10-20T09:16:00.091Z,64.15
2017-10-20T09:17:00.010Z,65.49
2017-10-20T09:17:59.924Z,65.97
2017-10-20T09:18:59.867Z,65.49
2017-10-20T09:19:59.777Z,65.33
2017-10-20T09:20:59.696Z,66.20
2017-10-20T09:21:59.614Z,64.31
2017-10-20T09:22:59.543Z,63.35
2017-10-20T09:23:59.465Z,63.25
2017-10-20T09:24:59.378Z,63.38
2017-10-20T09:25:59.311Z,64.76
2017-10-20T09:26:59.219Z,64.85
2017-10-20T09:27:59.147Z,64.85
2017-10-20T09:28:59.075Z,64.92
2017-10-20T09:29:58.986Z,65.11
2017-10-20T09:30:58.905Z,65.30
2017-10-20T09:31:58.837Z,65.01
2017-10-20T09:32:58.760Z,65.11
2017-10-20T09:33:58.681Z,65.72
2017-10-20T09:34:58.592Z,65.05
2017-10-20T09:35:58.518Z,63.41
2017-10-20T09:36:58.431Z,64.22
2017-10-20T09:37:58.361Z,62.93
2017-10-20T09:38:58.277Z,61.87
2017-10-20T09:39:58.195Z,62.06
2017-10-20T09:40:58.120Z,62.74
2017-10-20T09:41:58.047Z,64.25
2017-10-20T09:42:57.965Z,64.25
2017-10-20T09:43:57.885Z,64.25
2017-10-20T09:44:57.815Z,64.53
2017-10-20T09:45:57.733Z,65.08
2017-10-20T09:46:57.651Z,66.14
2017-10-20T09:47:57.580Z,66.42
2017-10-20T09:48:57.504Z,65.46
2017-10-20T09:49:57.422Z,66.20
2017-10-20T09:50:57.354Z,66.68
2017-10-20T09:51:57.265Z,67.64
2017-10-20T09:52:57.180Z,67.99
2017-10-20T09:53:57.127Z,66.46
2017-10-20T09:54:57.031Z,67.16
2017-10-20T09:55:56.942Z,66.26
2017-10-20T09:56:56.870Z,66.97
2017-10-20T09:57:56.796Z,66.74
2017-10-20T09:58:56.717Z,67.13
2017-10-20T09:59:56.665Z,67.80
2017-10-20T10:00:56.545Z,67.22
2017-10-20T10:01:56.494Z,67.51
2017-10-20T10:02:56.383Z,67.99
2017-10-20T10:03:56.306Z,67.70
2017-10-20T10:04:56.229Z,68.18
2017-10-20T10:05:56.155Z,69.43
2017-10-20T10:06:56.068Z,68.76
2017-10-20T10:07:55.989Z,69.34
2017-10-20T10:08:55.913Z,69.24
2017-10-20T10:09:55.827Z,68.95
2017-10-20T10:10:55.752Z,69.14
2017-10-20T10:11:55.685Z,69.34
2017-10-20T10:12:55.590Z,69.20
2017-10-20T10:13:55.510Z,69.49
2017-10-20T10:14:55.434Z,69.81
2017-10-20T10:15:55.371Z,69.68
2017-10-20T10:16:55.289Z,69.81
2017-10-20T10:17:55.193Z,69.62
2017-10-20T10:18:55.116Z,70.01
2017-10-20T10:19:55.047Z,69.72
2017-10-20T10:20:54.952Z,69.24
2017-10-20T10:21:54.874Z,69.05
2017-10-20T10:22:54.817Z,68.95
2017-10-20T10:23:54.723Z,69.81
2017-10-20T10:24:54.637Z,69.62
2017-10-20T10:25:54.553Z,70.10
2017-10-20T10:26:54.478Z,69.62
2017-10-20T10:27:54.407Z,69.34
2017-10-20T10:28:54.324Z,69.34
2017-10-20T10:29:54.242Z,69.14
2017-10-20T10:30:54.167Z,68.95
2017-10-20T10:31:54.084Z,69.34
2017-10-20T10:32:53.998Z,69.53
2017-10-20T10:33:53.920Z,69.53
2017-10-20T10:34:53.844Z,69.81
2017-10-20T10:35:53.766Z,69.30
2017-10-20T10:36:53.680Z,69.30
2017-10-20T10:37:53.604Z,69.43
2017-10-20T10:38:53.526Z,69.24
2017-10-20T10:39:53.443Z,68.15
2017-10-20T10:40:53.372Z,68.24
2017-10-20T10:41:53.305Z,69.40
2017-10-20T10:42:53.276Z,69.24
2017-10-20T10:43:53.130Z,69.40
2017-10-20T10:44:53.055Z,69.49
2017-10-20T10:45:52.994Z,69.11
2017-10-20T10:46:52.879Z,69.24
2017-10-20T10:47:52.815Z,69.34
2017-10-20T10:48:52.728Z,69.62
2017-10-20T10:49:52.645Z,69.72
2017-10-20T10:50:52.566Z,68.76
2017-10-20T10:51:52.486Z,68.18
2017-10-20T10:52:52.408Z,68.95
2017-10-20T10:53:52.324Z,69.34
2017-10-20T10:54:52.244Z,68.37
2017-10-20T10:55:52.165Z,68.76
2017-10-20T10:56:52.090Z,68.28
2017-10-20T10:57:52.010Z,68.28
2017-10-20T10:58:51.925Z,68.47
2017-10-20T10:59:51.844Z,68.57
2017-10-20T11:00:51.762Z,67.80
2017-10-20T11:01:51.682Z,67.70
2017-10-20T11:02:51.639Z,68.08
2017-10-20T11:03:51.534Z,67.61
2017-10-20T11:04:51.451Z,67.61
2017-10-20T11:05:51.360Z,67.90
2017-10-20T11:06:51.289Z,66.74
2017-10-20T11:07:51.202Z,67.22
2017-10-20T11:08:51.124Z,67.80
2017-10-20T11:09:51.055Z,67.61
2017-10-20T11:10:50.964Z,66.87
2017-10-20T11:11:50.897Z,66.87
2017-10-20T11:12:50.802Z,66.87
2017-10-20T11:13:50.725Z,66.30
2017-10-20T11:14:50.648Z,66.30
2017-10-20T11:15:50.562Z,67.25
2017-10-20T11:16:50.487Z,66.49
2017-10-20T11:17:50.409Z,66.68
2017-10-20T11:18:50.321Z,66.10
2017-10-20T11:19:50.246Z,65.72
2017-10-20T11:20:50.191Z,65.81
2017-10-20T11:21:50.096Z,66.10
2017-10-20T11:22:50.019Z,65.05
2017-10-20T11:23:49.932Z,64.18
2017-10-20T11:24:49.861Z,64.47
2017-10-20T11:25:49.767Z,64.85
2017-10-20T11:26:49.684Z,64.09
2017-10-20T11:27:49.613Z,64.28
2017-10-20T11:28:49.532Z,64.18
2017-10-20T11:29:49.448Z,64.85
2017-10-20T11:30:49.382Z,65.14
2017-10-20T11:31:49.282Z,63.32
2017-10-20T11:32:49.213Z,63.70
2017-10-20T11:33:49.124Z,63.79
2017-10-20T11:34:49.047Z,63.32
2017-10-20T11:35:48.966Z,63.51
2017-10-20T11:36:48.893Z,63.89
2017-10-20T11:37:48.800Z,63.60
2017-10-20T11:38:48.781Z,62.74
2017-10-20T11:39:48.654Z,61.97
2017-10-20T11:40:48.579Z,62.84
2017-10-20T11:41:48.490Z,62.29
2017-10-20T11:42:48.410Z,61.49
2017-10-20T11:43:48.331Z,61.81
2017-10-20T11:44:48.250Z,61.87
2017-10-20T11:45:48.165Z,61.78
2017-10-20T11:46:48.099Z,61.68
2017-10-20T11:47:48.006Z,61.71
2017-10-20T11:48:47.920Z,61.81
2017-10-20T11:49:47.851Z,61.61
2017-10-20T11:50:47.780Z,61.49
2017-10-20T11:51:47.680Z,61.43
2017-10-20T11:52:47.609Z,61.78
2017-10-20T11:53:47.526Z,61.43
2017-10-20T11:54:47.450Z,61.61
2017-10-20T11:55:47.381Z,61.81
2017-10-20T11:56:47.301Z,60.56
2017-10-20T11:57:47.223Z,61.14
2017-10-20T11:58:47.123Z,61.91
2017-10-20T11:59:47.054Z,61.81
2017-10-20T12:00:46.969Z,61.52
2017-10-20T12:01:46.884Z,61.71
2017-10-20T12:02:46.839Z,61.52
2017-10-20T12:03:46.767Z,60.37
2017-10-20T12:04:46.650Z,60.94
2017-10-20T12:05:46.579Z,62.00
2017-10-20T12:06:46.497Z,61.14
2017-10-20T12:07:46.418Z,61.52
2017-10-20T12:08:46.331Z,61.81
2017-10-20T12:09:46.255Z,61.71
2017-10-20T12:10:46.172Z,61.81
2017-10-20T12:11:46.098Z,61.61
2017-10-20T12:12:46.014Z,61.23
2017-10-20T12:13:45.937Z,61.81
2017-10-20T12:14:45.859Z,61.81
2017-10-20T12:15:45.782Z,62.96
2017-10-20T12:16:45.700Z,62.10
2017-10-20T12:17:45.617Z,62.00
2017-10-20T12:18:45.532Z,62.10
2017-10-20T12:19:45.469Z,61.91
2017-10-20T12:20:45.378Z,62.10
2017-10-20T12:21:45.298Z,62.38
2017-10-20T12:22:45.215Z,62.77
2017-10-20T12:23:45.142Z,62.58
2017-10-20T12:24:45.056Z,62.87
2017-10-20T12:25:44.980Z,62.48
2017-10-20T12:26:44.893Z,62.71
2017-10-20T12:27:44.823Z,61.84
2017-10-20T12:28:44.738Z,62.10
2017-10-20T12:29:44.680Z,62.13
2017-10-20T12:30:44.576Z,62.13
2017-10-20T12:31:44.491Z,62.90
2017-10-20T12:32:44.413Z,62.90
2017-10-20T12:33:44.342Z,62.99
2017-10-20T12:34:44.273Z,63.18
2017-10-20T12:35:44.185Z,63.76
2017-10-20T12:36:44.115Z,64.25
2017-10-20T12:37:44.018Z,64.73
2017-10-20T12:38:43.950Z,65.11
2017-10-20T12:39:43.866Z,65.08
2017-10-20T12:40:43.778Z,66.04
2017-10-20T12:41:43.697Z,65.94
2017-10-20T12:42:43.617Z,66.04
2017-10-20T12:43:43.570Z,65.56
2017-10-20T12:44:43.465Z,66.23
2017-10-20T12:45:43.373Z,66.23
2017-10-20T12:46:43.299Z,66.42
2017-10-20T12:47:43.218Z,65.94
2017-10-20T12:48:43.143Z,66.27
2017-10-20T12:49:43.061Z,66.14
2017-10-20T12:50:42.985Z,65.66
2017-10-20T12:51:42.905Z,66.04